createdAt,value
2022-12-25T00:03:31.978Z,101011.97
2022-12-25T00:08:33.480Z,101018.09
2022-12-25T00:13:35.136Z,101011.88
2022-12-25T00:18:36.481Z,101025.00
2022-12-25T00:23:38.091Z,101025.00
2022-12-25T00:28:39.445Z,101017.78
2022-12-25T00:33:41.856Z,101016.41
2022-12-25T00:38:43.239Z,101027.59
2022-12-25T00:43:44.707Z,101021.94
2022-12-25T00:48:47.991Z,101026.13
2022-12-25T00:53:49.308Z,101025.78
2022-12-25T00:58:50.719Z,101031.00
2022-12-25T01:03:52.127Z,101038.28
2022-12-25T01:09:12.060Z,101022.06
2022-12-25T01:14:13.552Z,101011.75
2022-12-25T01:19:14.870Z,101013.19
2022-12-25T01:24:16.219Z,101009.75
2022-12-25T01:29:17.566Z,101007.50
2022-12-25T01:34:18.939Z,100999.69
2022-12-25T01:39:20.345Z,101013.25
2022-12-25T01:44:37.064Z,101021.72
2022-12-25T01:49:40.170Z,101021.25
2022-12-25T01:54:43.386Z,101025.78
2022-12-25T01:59:45.215Z,100999.78
2022-12-25T02:04:48.501Z,101006.97
2022-12-25T02:09:50.207Z,101008.44
2022-12-25T02:14:55.414Z,101009.13
2022-12-25T02:20:18.391Z,101018.78
2022-12-25T02:25:38.563Z,101018.31
2022-12-25T02:30:45.845Z,101013.75
2022-12-25T02:35:50.157Z,101027.06
2022-12-25T02:40:56.020Z,101024.44
2022-12-25T02:46:17.892Z,101034.53
2022-12-25T02:51:39.578Z,101033.25
2022-12-25T02:57:01.660Z,101024.28
2022-12-25T03:02:22.562Z,101026.63
2022-12-25T03:07:25.580Z,101018.16
2022-12-25T03:12:32.974Z,101020.31
2022-12-25T03:17:34.643Z,101016.09
2022-12-25T03:22:54.966Z,100994.38
2022-12-25T03:27:57.277Z,100997.19
2022-12-25T03:33:18.080Z,100997.28
2022-12-25T03:38:51.782Z,100991.31
2022-12-25T03:44:23.501Z,100992.84
2022-12-25T03:50:01.257Z,100991.69
2022-12-25T03:55:23.262Z,100982.16
2022-12-25T04:00:43.058Z,100980.19
2022-12-25T04:06:02.982Z,100979.53
2022-12-25T04:11:23.077Z,100970.22
2022-12-25T04:16:42.939Z,100973.06
2022-12-25T04:22:02.697Z,100983.22
2022-12-25T04:27:22.481Z,100968.22
2022-12-25T04:32:42.194Z,100970.47
2022-12-25T04:37:43.557Z,100976.94
2022-12-25T04:42:44.861Z,100977.78
2022-12-25T04:47:46.162Z,100986.72
2022-12-25T04:52:47.488Z,100990.13
2022-12-25T04:57:48.829Z,100982.66
2022-12-25T05:02:50.345Z,100994.06
2022-12-25T05:07:51.875Z,100980.78
2022-12-25T05:12:53.208Z,100985.00
2022-12-25T05:17:54.526Z,100965.72
2022-12-25T05:22:55.867Z,100959.06
2022-12-25T05:27:57.199Z,100958.72
2022-12-25T05:32:58.539Z,100966.28
2022-12-25T05:37:59.853Z,100947.59
2022-12-25T05:43:01.173Z,100931.50
2022-12-25T05:48:02.506Z,100936.16
2022-12-25T05:53:08.263Z,100914.09
2022-12-25T05:58:11.143Z,100919.44
2022-12-25T06:03:12.682Z,100925.94
2022-12-25T06:08:14.089Z,100923.59
2022-12-25T06:13:15.616Z,100922.88
2022-12-25T06:18:16.976Z,100926.56
2022-12-25T06:23:18.377Z,100908.94
2022-12-25T06:28:19.687Z,100899.88
2022-12-25T06:33:20.997Z,100893.09
2022-12-25T06:38:22.314Z,100901.81
2022-12-25T06:43:23.632Z,100898.88
2022-12-25T06:48:24.948Z,100882.44
2022-12-25T06:53:26.362Z,100875.84
2022-12-25T06:58:28.279Z,100874.31
2022-12-25T07:03:30.282Z,100857.84
2022-12-25T07:08:31.638Z,100854.28
2022-12-25T07:13:32.978Z,100868.28
2022-12-25T07:18:34.653Z,100861.09
2022-12-25T07:23:36.386Z,100841.13
2022-12-25T07:28:38.078Z,100810.38
2022-12-25T07:33:39.725Z,100822.56
2022-12-25T07:38:41.979Z,100846.25
2022-12-25T07:43:43.549Z,100847.13
2022-12-25T07:48:44.864Z,100818.28
2022-12-25T07:53:46.193Z,100828.25
2022-12-25T07:58:48.632Z,100846.69
2022-12-25T08:03:54.664Z,100854.59
2022-12-25T08:08:56.598Z,100845.78
2022-12-25T08:13:58.061Z,100835.16
2022-12-25T08:18:59.699Z,100835.97
2022-12-25T08:24:03.252Z,100809.25
2022-12-25T08:29:04.644Z,100836.41
2022-12-25T08:34:06.994Z,100820.56
2022-12-25T08:39:08.546Z,100827.22
2022-12-25T08:44:11.688Z,100796.28
2022-12-25T08:49:13.222Z,100815.53
2022-12-25T08:54:14.575Z,100815.97
2022-12-25T08:59:15.911Z,100814.81
2022-12-25T09:04:17.244Z,100816.19
2022-12-25T09:09:18.573Z,100819.38
2022-12-25T09:14:20.162Z,100797.91
2022-12-25T09:19:22.088Z,100784.34
2022-12-25T09:24:23.435Z,100778.94
2022-12-25T09:29:24.738Z,100770.69
2022-12-25T09:34:26.061Z,100747.56
2022-12-25T09:39:27.600Z,100760.59
2022-12-25T09:44:30.714Z,100766.25
2022-12-25T09:49:52.168Z,100778.38
2022-12-25T09:54:53.496Z,100773.84
2022-12-25T09:59:55.971Z,100766.72
2022-12-25T10:05:06.920Z,100767.59
2022-12-25T10:10:27.179Z,100769.69
2022-12-25T10:15:36.701Z,100767.72
2022-12-25T10:20:45.689Z,100763.53
2022-12-25T10:25:47.535Z,100759.75
2022-12-25T10:30:50.289Z,100756.31
2022-12-25T10:35:51.652Z,100762.59
2022-12-25T10:41:18.922Z,100749.44
2022-12-25T10:46:21.266Z,100739.44
2022-12-25T10:51:36.013Z,100731.75
2022-12-25T10:56:37.340Z,100727.19
2022-12-25T11:01:38.695Z,100735.81
2022-12-25T11:06:40.131Z,100719.16
2022-12-25T11:11:41.723Z,100707.16
2022-12-25T11:16:43.144Z,100652.59
2022-12-25T11:21:50.319Z,100631.94
2022-12-25T11:26:54.879Z,100641.59
2022-12-25T11:31:59.698Z,100614.69
2022-12-25T11:37:02.594Z,100615.13
2022-12-25T11:42:22.615Z,100591.22
2022-12-25T11:47:27.033Z,100602.28
2022-12-25T11:52:31.752Z,100609.56
2022-12-25T11:57:35.657Z,100601.91
2022-12-25T12:02:46.039Z,100576.94
2022-12-25T12:07:51.874Z,100561.06
2022-12-25T12:13:02.219Z,100564.06
2022-12-25T12:18:09.602Z,100553.22
2022-12-25T12:23:15.393Z,100559.25
2022-12-25T12:28:25.131Z,100543.31
2022-12-25T12:33:29.351Z,100550.31
2022-12-25T12:38:32.259Z,100531.47
2022-12-25T12:43:39.097Z,100536.69
2022-12-25T12:48:41.983Z,100543.53
2022-12-25T12:53:43.578Z,100534.47
2022-12-25T12:58:50.884Z,100533.84
2022-12-25T13:03:58.289Z,100537.09
2022-12-25T13:09:06.739Z,100512.84
2022-12-25T13:14:19.358Z,100516.06
2022-12-25T13:19:26.271Z,100522.94
2022-12-25T13:24:28.594Z,100519.34
2022-12-25T13:29:33.123Z,100531.47
2022-12-25T13:34:36.522Z,100529.00
2022-12-25T13:39:39.395Z,100520.75
2022-12-25T13:44:46.409Z,100518.94
2022-12-25T13:49:48.655Z,100514.09
2022-12-25T13:54:57.833Z,100528.19
2022-12-25T13:59:59.600Z,100523.75
2022-12-25T14:05:00.948Z,100537.22
2022-12-25T14:10:03.225Z,100555.13
2022-12-25T14:15:04.978Z,100558.31
2022-12-25T14:20:08.748Z,100571.19
2022-12-25T14:25:14.151Z,100556.91
2022-12-25T14:30:15.637Z,100542.16
2022-12-25T14:35:23.120Z,100542.56
2022-12-25T14:40:31.812Z,100521.81
2022-12-25T14:45:34.253Z,100549.03
2022-12-25T14:50:42.397Z,100547.38
2022-12-25T14:55:48.094Z,100541.97
2022-12-25T15:00:57.734Z,100533.88
2022-12-25T15:06:01.314Z,100529.03
2022-12-25T15:11:03.625Z,100520.03
2022-12-25T15:16:16.827Z,100522.47
2022-12-25T15:21:21.221Z,100517.41
2022-12-25T15:26:23.308Z,100529.50
2022-12-25T15:31:25.977Z,100525.91
2022-12-25T15:36:27.553Z,100507.97
2022-12-25T15:41:49.909Z,100502.75
2022-12-25T15:46:51.800Z,100521.72
2022-12-25T15:51:53.264Z,100506.03
2022-12-25T15:56:56.206Z,100500.81
2022-12-25T16:01:58.952Z,100495.34
2022-12-25T16:07:00.467Z,100498.38
2022-12-25T16:12:01.830Z,100502.19
2022-12-25T16:17:03.443Z,100494.34
2022-12-25T16:22:11.409Z,100489.34
2022-12-25T16:27:12.729Z,100505.69
2022-12-25T16:32:15.113Z,100486.34
2022-12-25T16:37:16.447Z,100506.50
2022-12-25T16:42:17.758Z,100491.19
2022-12-25T16:47:19.069Z,100504.47
2022-12-25T16:52:20.380Z,100505.88
2022-12-25T16:57:21.734Z,100516.53
2022-12-25T17:02:23.365Z,100515.53
2022-12-25T17:07:24.866Z,100518.97
2022-12-25T17:12:26.261Z,100518.16
2022-12-25T17:17:27.644Z,100518.16
2022-12-25T17:22:28.977Z,100524.16
2022-12-25T17:27:30.309Z,100521.75
2022-12-25T17:32:31.624Z,100529.63
2022-12-25T17:37:33.555Z,100521.75
2022-12-25T17:42:34.930Z,100530.41
2022-12-25T17:47:36.412Z,100517.94
2022-12-25T17:52:37.769Z,100522.59
2022-12-25T17:57:41.284Z,100519.19
2022-12-25T18:02:47.110Z,100524.59
2022-12-25T18:07:48.828Z,100534.66
2022-12-25T18:12:50.191Z,100530.03
2022-12-25T18:17:51.514Z,100523.38
2022-12-25T18:22:52.934Z,100514.75
2022-12-25T18:27:55.096Z,100517.94
2022-12-25T18:32:56.530Z,100504.91
2022-12-25T18:37:57.941Z,100493.84
2022-12-25T18:43:03.209Z,100497.47
2022-12-25T18:48:06.321Z,100500.88
2022-12-25T18:53:07.990Z,100487.19
2022-12-25T18:58:09.309Z,100468.88
2022-12-25T19:03:10.702Z,100473.53
2022-12-25T19:08:12.171Z,100477.34
2022-12-25T19:13:13.495Z,100475.53
2022-12-25T19:18:14.856Z,100483.38
2022-12-25T19:23:16.184Z,100489.03
2022-12-25T19:28:17.799Z,100483.16
2022-12-25T19:33:19.224Z,100486.41
2022-12-25T19:38:21.368Z,100496.44
2022-12-25T19:43:22.674Z,100505.31
2022-12-25T19:48:24.397Z,100499.25
2022-12-25T19:53:25.857Z,100491.84
2022-12-25T19:58:27.179Z,100501.69
2022-12-25T20:03:28.666Z,100490.22
2022-12-25T20:08:30.073Z,100484.00
2022-12-25T20:13:31.461Z,100475.94
2022-12-25T20:18:32.818Z,100483.59
2022-12-25T20:23:34.158Z,100496.25
2022-12-25T20:28:36.561Z,100496.63
2022-12-25T20:33:37.953Z,100479.56
2022-12-25T20:38:39.526Z,100486.81
2022-12-25T20:43:45.259Z,100476.75
2022-12-25T20:48:47.189Z,100488.00
2022-12-25T20:53:48.968Z,100492.22
2022-12-25T20:58:57.291Z,100505.88
2022-12-25T21:03:59.057Z,100502.09
2022-12-25T21:09:00.810Z,100500.47
2022-12-25T21:14:02.174Z,100494.38
2022-12-25T21:19:03.500Z,100496.84
2022-12-25T21:24:04.909Z,100505.09
2022-12-25T21:29:06.262Z,100513.75
2022-12-25T21:34:07.592Z,100518.97
2022-12-25T21:39:10.668Z,100513.34
2022-12-25T21:44:12.099Z,100522.63
2022-12-25T21:49:33.414Z,100522.00
2022-12-25T21:54:35.159Z,100518.41
2022-12-25T21:59:36.714Z,100523.41
2022-12-25T22:04:38.522Z,100523.81
2022-12-25T22:09:39.833Z,100533.88
2022-12-25T22:14:53.727Z,100520.38
2022-12-25T22:19:56.760Z,100546.38
2022-12-25T22:24:59.232Z,100543.34
2022-12-25T22:30:01.013Z,100540.72
2022-12-25T22:35:02.516Z,100550.59
2022-12-25T22:40:05.896Z,100559.53
2022-12-25T22:45:07.497Z,100577.31
2022-12-25T22:50:09.268Z,100579.72
2022-12-25T22:55:10.885Z,100569.00
2022-12-25T23:00:13.206Z,100557.84
2022-12-25T23:05:14.707Z,100543.91
2022-12-25T23:10:16.059Z,100551.63
2022-12-25T23:15:17.439Z,100567.00
2022-12-25T23:20:37.501Z,100542.94
2022-12-25T23:25:57.745Z,100515.44
2022-12-25T23:30:59.110Z,100539.69
2022-12-25T23:36:00.592Z,100541.00
2022-12-25T23:41:01.920Z,100548.97
2022-12-25T23:46:03.510Z,100545.75
2022-12-25T23:51:05.587Z,100544.56
2022-12-25T23:56:07.071Z,100549.41
